sensor_id;sensor_type;location;lat;lon;timestamp;P1;durP1;ratioP1;P2;durP2;ratioP2
63900;SDS011;50538;53.482;10.294;2022-07-01T00:09:57;6.95;;;4.10;;
63900;SDS011;50538;53.482;10.294;2022-07-01T00:19:57;7.68;;;3.58;;
63900;SDS011;50538;53.482;10.294;2022-07-01T00:29:57;5.97;;;3.80;;
63900;SDS011;50538;53.482;10.294;2022-07-01T00:39:58;3.85;;;1.92;;
63900;SDS011;50538;53.482;10.294;2022-07-01T00:49:58;11.90;;;1.88;;
63900;SDS011;50538;53.482;10.294;2022-07-01T01:00:12;4.63;;;1.77;;
63900;SDS011;50538;53.482;10.294;2022-07-01T01:22:07;6.32;;;1.95;;
63900;SDS011;50538;53.482;10.294;2022-07-01T02:06:37;4.05;;;1.83;;
63900;SDS011;50538;53.482;10.294;2022-07-01T02:17:10;4.97;;;1.77;;
63900;SDS011;50538;53.482;10.294;2022-07-01T02:27:10;4.90;;;2.00;;
63900;SDS011;50538;53.482;10.294;2022-07-01T02:37:12;5.25;;;1.73;;
63900;SDS011;50538;53.482;10.294;2022-07-01T02:47:12;4.72;;;2.03;;
63900;SDS011;50538;53.482;10.294;2022-07-01T02:57:13;4.82;;;2.05;;
63900;SDS011;50538;53.482;10.294;2022-07-01T03:07:13;11.63;;;2.47;;
63900;SDS011;50538;53.482;10.294;2022-07-01T03:17:15;6.05;;;2.90;;
63900;SDS011;50538;53.482;10.294;2022-07-01T03:27:15;5.70;;;2.95;;
63900;SDS011;50538;53.482;10.294;2022-07-01T03:37:17;8.95;;;3.88;;
63900;SDS011;50538;53.482;10.294;2022-07-01T03:47:18;8.98;;;3.53;;
63900;SDS011;50538;53.482;10.294;2022-07-01T03:57:19;7.95;;;3.30;;
63900;SDS011;50538;53.482;10.294;2022-07-01T04:07:21;8.05;;;2.50;;
63900;SDS011;50538;53.482;10.294;2022-07-01T04:17:22;7.32;;;3.40;;
63900;SDS011;50538;53.482;10.294;2022-07-01T04:27:22;8.13;;;3.88;;
63900;SDS011;50538;53.482;10.294;2022-07-01T04:37:22;8.18;;;4.38;;
63900;SDS011;50538;53.482;10.294;2022-07-01T04:47:23;8.48;;;3.80;;
63900;SDS011;50538;53.482;10.294;2022-07-01T04:57:24;6.95;;;3.47;;
63900;SDS011;50538;53.482;10.294;2022-07-01T05:07:24;6.65;;;2.88;;
63900;SDS011;50538;53.482;10.294;2022-07-01T05:17:31;6.05;;;2.80;;
63900;SDS011;50538;53.482;10.294;2022-07-01T05:27:50;6.70;;;3.38;;
63900;SDS011;50538;53.482;10.294;2022-07-01T05:37:50;6.22;;;2.50;;
63900;SDS011;50538;53.482;10.294;2022-07-01T05:47:51;7.10;;;2.30;;
63900;SDS011;50538;53.482;10.294;2022-07-01T05:57:51;5.03;;;1.80;;
63900;SDS011;50538;53.482;10.294;2022-07-01T06:07:52;3.53;;;1.73;;
63900;SDS011;50538;53.482;10.294;2022-07-01T06:17:53;2.85;;;1.00;;
63900;SDS011;50538;53.482;10.294;2022-07-01T06:27:53;5.65;;;0.88;;
63900;SDS011;50538;53.482;10.294;2022-07-01T06:37:54;1.40;;;0.70;;
63900;SDS011;50538;53.482;10.294;2022-07-01T06:47:54;1.52;;;0.60;;
63900;SDS011;50538;53.482;10.294;2022-07-01T06:57:54;2.97;;;0.90;;
63900;SDS011;50538;53.482;10.294;2022-07-01T07:07:55;1.50;;;0.95;;
63900;SDS011;50538;53.482;10.294;2022-07-01T07:17:55;3.35;;;0.90;;
63900;SDS011;50538;53.482;10.294;2022-07-01T07:27:57;2.65;;;1.27;;
63900;SDS011;50538;53.482;10.294;2022-07-01T07:37:57;1.15;;;0.80;;
63900;SDS011;50538;53.482;10.294;2022-07-01T07:47:58;5.87;;;1.40;;
63900;SDS011;50538;53.482;10.294;2022-07-01T07:58:00;1.38;;;0.90;;
63900;SDS011;50538;53.482;10.294;2022-07-01T08:08:00;2.85;;;1.20;;
63900;SDS011;50538;53.482;10.294;2022-07-01T08:18:01;3.78;;;1.38;;
63900;SDS011;50538;53.482;10.294;2022-07-01T08:28:02;3.08;;;1.38;;
63900;SDS011;50538;53.482;10.294;2022-07-01T08:38:05;3.75;;;1.38;;
63900;SDS011;50538;53.482;10.294;2022-07-01T08:48:09;3.08;;;1.50;;
63900;SDS011;50538;53.482;10.294;2022-07-01T08:58:09;3.47;;;1.10;;
63900;SDS011;50538;53.482;10.294;2022-07-01T09:08:13;2.88;;;1.20;;
63900;SDS011;50538;53.482;10.294;2022-07-01T09:18:27;2.63;;;1.30;;
63900;SDS011;50538;53.482;10.294;2022-07-01T09:28:31;2.55;;;1.30;;
63900;SDS011;50538;53.482;10.294;2022-07-01T09:38:44;2.38;;;1.30;;
63900;SDS011;50538;53.482;10.294;2022-07-01T09:48:47;3.15;;;1.23;;
63900;SDS011;50538;53.482;10.294;2022-07-01T09:58:47;2.22;;;1.08;;
63900;SDS011;50538;53.482;10.294;2022-07-01T10:19:28;1.88;;;1.10;;
63900;SDS011;50538;53.482;10.294;2022-07-01T10:29:31;3.03;;;1.40;;
63900;SDS011;50538;53.482;10.294;2022-07-01T10:49:53;3.00;;;1.33;;
63900;SDS011;50538;53.482;10.294;2022-07-01T11:10:09;1.92;;;1.15;;
63900;SDS011;50538;53.482;10.294;2022-07-01T11:20:14;2.65;;;1.27;;
63900;SDS011;50538;53.482;10.294;2022-07-01T11:30:22;3.42;;;1.73;;
63900;SDS011;50538;53.482;10.294;2022-07-01T11:40:26;3.17;;;1.52;;
63900;SDS011;50538;53.482;10.294;2022-07-01T11:50:27;3.88;;;1.77;;
63900;SDS011;50538;53.482;10.294;2022-07-01T12:00:33;2.90;;;1.70;;
63900;SDS011;50538;53.482;10.294;2022-07-01T12:10:34;4.03;;;1.90;;
63900;SDS011;50538;53.482;10.294;2022-07-01T12:20:34;4.07;;;2.07;;
63900;SDS011;50538;53.482;10.294;2022-07-01T12:30:37;4.07;;;2.05;;
63900;SDS011;50538;53.482;10.294;2022-07-01T12:41:28;4.60;;;2.63;;
63900;SDS011;50538;53.482;10.294;2022-07-01T12:51:38;5.40;;;2.50;;
63900;SDS011;50538;53.482;10.294;2022-07-01T13:01:39;5.75;;;3.10;;
63900;SDS011;50538;53.482;10.294;2022-07-01T13:12:10;4.53;;;2.50;;
63900;SDS011;50538;53.482;10.294;2022-07-01T13:33:21;4.60;;;2.65;;
63900;SDS011;50538;53.482;10.294;2022-07-01T13:43:36;4.40;;;2.60;;
63900;SDS011;50538;53.482;10.294;2022-07-01T13:54:07;8.32;;;2.20;;
63900;SDS011;50538;53.482;10.294;2022-07-01T14:04:14;4.78;;;2.28;;
63900;SDS011;50538;53.482;10.294;2022-07-01T14:14:16;5.50;;;2.53;;
63900;SDS011;50538;53.482;10.294;2022-07-01T14:24:26;6.13;;;2.50;;
63900;SDS011;50538;53.482;10.294;2022-07-01T14:34:27;6.80;;;1.88;;
63900;SDS011;50538;53.482;10.294;2022-07-01T14:44:27;4.03;;;1.92;;
63900;SDS011;50538;53.482;10.294;2022-07-01T14:54:29;4.57;;;1.80;;
63900;SDS011;50538;53.482;10.294;2022-07-01T15:04:29;4.18;;;2.10;;
63900;SDS011;50538;53.482;10.294;2022-07-01T15:14:30;3.78;;;1.77;;
63900;SDS011;50538;53.482;10.294;2022-07-01T15:24:31;5.30;;;1.98;;
63900;SDS011;50538;53.482;10.294;2022-07-01T15:34:32;5.15;;;2.17;;
63900;SDS011;50538;53.482;10.294;2022-07-01T15:44:47;4.75;;;2.58;;
63900;SDS011;50538;53.482;10.294;2022-07-01T15:54:47;8.30;;;3.30;;
63900;SDS011;50538;53.482;10.294;2022-07-01T16:04:47;6.40;;;2.88;;
63900;SDS011;50538;53.482;10.294;2022-07-01T16:14:53;7.80;;;3.80;;
63900;SDS011;50538;53.482;10.294;2022-07-01T16:24:55;8.40;;;3.53;;
63900;SDS011;50538;53.482;10.294;2022-07-01T16:34:56;9.07;;;4.03;;
63900;SDS011;50538;53.482;10.294;2022-07-01T16:45:01;6.35;;;3.45;;
63900;SDS011;50538;53.482;10.294;2022-07-01T16:55:06;6.88;;;3.58;;
63900;SDS011;50538;53.482;10.294;2022-07-01T17:05:08;5.78;;;3.55;;
63900;SDS011;50538;53.482;10.294;2022-07-01T17:15:10;7.13;;;4.18;;
63900;SDS011;50538;53.482;10.294;2022-07-01T17:25:14;7.85;;;4.10;;
63900;SDS011;50538;53.482;10.294;2022-07-01T17:35:25;6.63;;;3.95;;
63900;SDS011;50538;53.482;10.294;2022-07-01T17:45:27;6.78;;;4.90;;
63900;SDS011;50538;53.482;10.294;2022-07-01T17:55:28;8.88;;;4.38;;
63900;SDS011;50538;53.482;10.294;2022-07-01T18:05:31;7.80;;;4.15;;
63900;SDS011;50538;53.482;10.294;2022-07-01T18:15:34;8.82;;;4.53;;
63900;SDS011;50538;53.482;10.294;2022-07-01T18:35:39;6.87;;;4.10;;
63900;SDS011;50538;53.482;10.294;2022-07-01T18:45:41;6.57;;;3.92;;
63900;SDS011;50538;53.482;10.294;2022-07-01T18:55:41;8.10;;;3.10;;
63900;SDS011;50538;53.482;10.294;2022-07-01T19:05:42;3.88;;;2.35;;
63900;SDS011;50538;53.482;10.294;2022-07-01T19:15:42;4.13;;;2.20;;
63900;SDS011;50538;53.482;10.294;2022-07-01T19:25:43;4.38;;;2.30;;
63900;SDS011;50538;53.482;10.294;2022-07-01T19:35:43;8.30;;;3.15;;
63900;SDS011;50538;53.482;10.294;2022-07-01T19:45:43;4.20;;;2.25;;
63900;SDS011;50538;53.482;10.294;2022-07-01T19:55:44;3.95;;;1.77;;
63900;SDS011;50538;53.482;10.294;2022-07-01T20:05:44;3.70;;;1.92;;
63900;SDS011;50538;53.482;10.294;2022-07-01T20:15:45;6.47;;;2.08;;
63900;SDS011;50538;53.482;10.294;2022-07-01T20:25:45;3.90;;;1.90;;
63900;SDS011;50538;53.482;10.294;2022-07-01T20:35:46;2.33;;;1.40;;
63900;SDS011;50538;53.482;10.294;2022-07-01T20:45:46;3.33;;;1.48;;
63900;SDS011;50538;53.482;10.294;2022-07-01T20:55:47;3.97;;;1.50;;
63900;SDS011;50538;53.482;10.294;2022-07-01T21:05:47;3.00;;;1.50;;
63900;SDS011;50538;53.482;10.294;2022-07-01T21:15:48;3.60;;;1.42;;
63900;SDS011;50538;53.482;10.294;2022-07-01T21:25:48;2.67;;;1.50;;
63900;SDS011;50538;53.482;10.294;2022-07-01T21:35:48;2.67;;;1.35;;
63900;SDS011;50538;53.482;10.294;2022-07-01T21:45:52;4.40;;;1.90;;
63900;SDS011;50538;53.482;10.294;2022-07-01T21:55:56;5.97;;;1.53;;
63900;SDS011;50538;53.482;10.294;2022-07-01T22:05:59;3.88;;;1.45;;
63900;SDS011;50538;53.482;10.294;2022-07-01T22:16:19;2.83;;;1.50;;
63900;SDS011;50538;53.482;10.294;2022-07-01T22:26:22;2.72;;;1.55;;
63900;SDS011;50538;53.482;10.294;2022-07-01T22:36:23;2.75;;;1.23;;
63900;SDS011;50538;53.482;10.294;2022-07-01T22:46:32;6.30;;;1.77;;
63900;SDS011;50538;53.482;10.294;2022-07-01T22:56:43;3.08;;;1.65;;
63900;SDS011;50538;53.482;10.294;2022-07-01T23:06:54;2.75;;;1.45;;
63900;SDS011;50538;53.482;10.294;2022-07-01T23:16:55;2.58;;;1.48;;
63900;SDS011;50538;53.482;10.294;2022-07-01T23:26:57;3.42;;;1.65;;
63900;SDS011;50538;53.482;10.294;2022-07-01T23:37:00;2.88;;;1.33;;
63900;SDS011;50538;53.482;10.294;2022-07-01T23:47:01;2.08;;;1.15;;
63900;SDS011;50538;53.482;10.294;2022-07-01T23:57:01;5.20;;;1.77;;
